createdAt,value
2018-04-12T00:01:04.811Z,12.50
2018-04-12T00:03:33.043Z,12.50
2018-04-12T00:06:01.315Z,12.60
2018-04-12T00:08:31.043Z,12.60
2018-04-12T00:11:00.047Z,12.60
2018-04-12T00:15:58.041Z,12.60
2018-04-12T00:18:26.271Z,12.60
2018-04-12T00:20:55.675Z,12.70
2018-04-12T00:23:23.910Z,12.70
2018-04-12T00:25:53.646Z,12.70
2018-04-12T00:28:22.246Z,12.70
2018-04-12T00:30:51.987Z,12.80
2018-04-12T00:33:20.218Z,12.80
2018-04-12T00:35:49.206Z,12.80
2018-04-12T00:40:46.907Z,12.80
2018-04-12T00:43:15.176Z,12.80
2018-04-12T00:45:43.411Z,12.80
2018-04-12T00:48:11.642Z,12.80
2018-04-12T00:50:40.243Z,12.90
2018-04-12T00:53:08.866Z,12.80
2018-04-12T00:55:37.191Z,12.80
2018-04-12T00:58:05.465Z,12.90
2018-04-12T01:00:33.704Z,12.80
2018-04-12T01:03:01.935Z,12.80
2018-04-12T01:05:30.471Z,12.90
2018-04-12T01:10:28.158Z,12.80
2018-04-12T01:12:56.432Z,12.80
2018-04-12T01:15:24.667Z,12.90
2018-04-12T01:17:52.907Z,12.90
2018-04-12T01:20:21.620Z,12.90
2018-04-12T01:22:50.246Z,12.90
2018-04-12T01:25:18.480Z,12.90
2018-04-12T01:27:47.026Z,12.90
2018-04-12T01:30:16.770Z,12.90
2018-04-12T01:32:57.026Z,12.90
2018-04-12T01:35:25.263Z,12.90
2018-04-12T01:37:53.496Z,12.90
2018-04-12T01:40:22.069Z,12.90
2018-04-12T01:42:51.075Z,12.90
2018-04-12T01:45:20.083Z,12.90
2018-04-12T01:47:48.778Z,12.90
2018-04-12T01:50:18.523Z,12.90
2018-04-12T01:52:46.774Z,12.90
2018-04-12T01:55:15.830Z,12.80
2018-04-12T01:57:44.068Z,12.80
2018-04-12T02:00:12.695Z,12.80
2018-04-12T02:02:41.148Z,12.80
2018-04-12T02:05:10.895Z,12.80
2018-04-12T02:07:39.127Z,12.80
2018-04-12T02:12:38.688Z,12.80
2018-04-12T02:15:07.687Z,12.70
2018-04-12T02:17:37.463Z,12.70
2018-04-12T02:20:05.699Z,12.70
2018-04-12T02:22:33.932Z,12.70
2018-04-12T02:25:02.551Z,12.80
2018-04-12T02:27:31.174Z,12.70
2018-04-12T02:29:59.416Z,12.70
2018-04-12T02:32:27.826Z,12.70
2018-04-12T02:34:56.476Z,12.70
2018-04-12T02:37:25.834Z,12.70
2018-04-12T02:39:54.630Z,12.70
2018-04-12T02:44:52.318Z,12.70
2018-04-12T02:47:20.591Z,12.70
2018-04-12T02:49:48.824Z,12.70
2018-04-12T02:52:17.063Z,12.70
2018-04-12T02:57:15.574Z,12.70
2018-04-12T02:59:49.346Z,12.60
2018-04-12T03:02:17.579Z,12.60
2018-04-12T03:04:46.953Z,12.60
2018-04-12T03:07:16.006Z,12.60
2018-04-12T03:09:45.055Z,12.50
2018-04-12T03:12:14.007Z,12.50
2018-04-12T03:14:43.758Z,12.50
2018-04-12T03:17:13.502Z,12.50
2018-04-12T03:19:42.501Z,12.50
2018-04-12T03:22:11.882Z,12.50
2018-04-12T03:24:40.878Z,12.40
2018-04-12T03:27:09.879Z,12.40
2018-04-12T03:29:38.908Z,12.40
2018-04-12T03:32:07.144Z,12.30
2018-04-12T03:37:04.934Z,12.30
2018-04-12T03:42:02.631Z,12.30
2018-04-12T03:44:31.270Z,12.30
2018-04-12T03:49:29.035Z,12.20
2018-04-12T03:51:57.722Z,12.20
2018-04-12T03:56:55.415Z,12.20
2018-04-12T03:59:23.778Z,12.20
2018-04-12T04:01:52.301Z,12.20
2018-04-12T04:04:20.527Z,12.20
2018-04-12T04:06:50.045Z,12.20
2018-04-12T04:09:18.263Z,12.10
2018-04-12T04:11:46.523Z,12.10
2018-04-12T04:14:26.639Z,12.10
2018-04-12T04:17:06.696Z,12.10
2018-04-12T04:19:47.025Z,12.10
2018-04-12T04:22:16.395Z,12.00
2018-04-12T04:24:44.628Z,12.00
2018-04-12T04:27:13.071Z,12.00
2018-04-12T04:29:42.814Z,12.00
2018-04-12T04:32:11.447Z,12.00
2018-04-12T04:34:39.922Z,12.00
2018-04-12T04:37:08.923Z,12.00
2018-04-12T04:39:37.154Z,11.90
2018-04-12T04:42:05.522Z,11.90
2018-04-12T04:44:33.759Z,11.90
2018-04-12T04:47:01.997Z,11.90
2018-04-12T04:49:30.303Z,11.90
2018-04-12T04:51:58.539Z,11.90
2018-04-12T04:54:27.914Z,12.00
2018-04-12T04:56:56.691Z,12.00
2018-04-12T05:01:54.775Z,11.90
2018-04-12T05:04:24.472Z,12.00
2018-04-12T05:06:53.467Z,11.90
2018-04-12T05:09:22.470Z,11.90
2018-04-12T05:11:50.735Z,11.90
2018-04-12T05:14:18.975Z,11.90
2018-04-12T05:16:47.207Z,11.90
2018-04-12T05:19:17.454Z,12.00
2018-04-12T05:21:47.199Z,12.00
2018-04-12T05:24:15.432Z,12.00
2018-04-12T05:26:44.098Z,12.00
2018-04-12T05:31:41.790Z,12.10
2018-04-12T05:34:10.150Z,12.10
2018-04-12T05:36:38.392Z,12.10
2018-04-12T05:41:37.171Z,12.20
2018-04-12T05:46:34.858Z,12.30
2018-04-12T05:49:03.551Z,12.30
2018-04-12T05:51:32.923Z,12.40
2018-04-12T05:54:01.153Z,12.40
2018-04-12T05:56:30.562Z,12.50
2018-04-12T05:58:58.790Z,12.50
2018-04-12T06:01:27.791Z,12.60
2018-04-12T06:06:25.630Z,12.60
2018-04-12T06:08:55.370Z,12.70
2018-04-12T06:11:25.142Z,12.70
2018-04-12T06:13:53.379Z,12.80
2018-04-12T06:16:21.612Z,12.90
2018-04-12T06:18:50.753Z,12.90
2018-04-12T06:21:19.773Z,12.90
2018-04-12T06:23:48.738Z,13.00
2018-04-12T06:26:17.290Z,13.00
2018-04-12T06:28:45.919Z,13.00
2018-04-12T06:31:14.159Z,13.10
2018-04-12T06:33:42.430Z,13.10
2018-04-12T06:36:10.666Z,13.10
2018-04-12T06:38:38.898Z,13.10
2018-04-12T06:41:07.506Z,13.20
2018-04-12T06:43:35.746Z,13.20
2018-04-12T06:46:04.742Z,13.30
2018-04-12T06:48:33.230Z,13.40
2018-04-12T06:53:32.058Z,13.60
2018-04-12T06:56:00.362Z,13.60
2018-04-12T06:58:30.103Z,13.60
2018-04-12T07:00:59.479Z,13.60
2018-04-12T07:03:28.163Z,13.60
2018-04-12T07:05:58.175Z,13.60
2018-04-12T07:08:26.383Z,13.60
2018-04-12T07:10:57.978Z,13.70
2018-04-12T07:13:26.978Z,13.70
2018-04-12T07:15:55.211Z,13.70
2018-04-12T07:18:24.396Z,13.80
2018-04-12T07:20:52.621Z,13.90
2018-04-12T07:23:22.363Z,13.90
2018-04-12T07:25:51.454Z,14.00
2018-04-12T07:28:19.686Z,14.00
2018-04-12T07:30:48.697Z,14.00
2018-04-12T07:33:18.956Z,14.10
2018-04-12T07:35:47.187Z,14.10
2018-04-12T07:40:45.315Z,14.30
2018-04-12T07:43:13.546Z,14.40
2018-04-12T07:45:41.778Z,14.50
2018-04-12T07:50:40.515Z,14.50
2018-04-12T07:53:08.752Z,14.50
2018-04-12T07:58:07.951Z,14.40
2018-04-12T08:00:36.182Z,14.50
2018-04-12T08:05:34.670Z,14.40
2018-04-12T08:08:03.007Z,14.40
2018-04-12T08:10:31.327Z,14.50
2018-04-12T08:13:00.698Z,14.50
2018-04-12T08:17:59.770Z,14.60
2018-04-12T08:20:28.007Z,14.60
2018-04-12T08:22:56.247Z,14.60
2018-04-12T08:25:25.660Z,14.60
2018-04-12T08:27:53.895Z,14.70
2018-04-12T08:30:22.177Z,14.70
2018-04-12T08:32:50.598Z,14.80
2018-04-12T08:35:19.598Z,14.80
2018-04-12T08:37:49.099Z,14.80
2018-04-12T08:40:18.499Z,14.90
2018-04-12T08:42:46.730Z,14.90
2018-04-12T08:45:16.102Z,14.90
2018-04-12T08:47:45.156Z,15.00
2018-04-12T08:50:13.390Z,15.00
2018-04-12T08:52:42.391Z,15.00
2018-04-12T08:55:10.759Z,15.00
2018-04-12T08:57:39.391Z,15.10
2018-04-12T09:00:07.626Z,15.00
2018-04-12T09:02:35.898Z,15.00
2018-04-12T09:05:04.130Z,15.00
2018-04-12T09:10:04.034Z,14.90
2018-04-12T09:12:33.407Z,14.90
2018-04-12T09:15:01.639Z,15.00
2018-04-12T09:17:30.379Z,15.00
2018-04-12T09:19:59.827Z,15.10
2018-04-12T09:22:28.798Z,15.20
2018-04-12T09:24:58.579Z,15.40
2018-04-12T09:27:26.811Z,15.40
2018-04-12T09:29:55.047Z,15.50
2018-04-12T09:32:23.343Z,15.60
2018-04-12T09:34:51.578Z,15.60
2018-04-12T09:37:20.579Z,15.70
2018-04-12T09:39:49.626Z,15.90
2018-04-12T09:42:18.622Z,16.30
2018-04-12T09:44:47.622Z,16.80
2018-04-12T09:47:16.255Z,17.40
2018-04-12T09:49:45.255Z,17.80
2018-04-12T09:52:14.263Z,18.40
2018-04-12T09:54:44.046Z,19.10
2018-04-12T09:57:12.282Z,20.10
2018-04-12T09:59:40.515Z,21.40
2018-04-12T10:02:10.162Z,22.80
2018-04-12T10:04:45.523Z,24.20
2018-04-12T10:07:17.422Z,25.20
2018-04-12T10:09:46.054Z,26.10
2018-04-12T10:14:44.174Z,27.20
2018-04-12T10:17:12.407Z,27.50
2018-04-12T10:19:40.643Z,27.40
2018-04-12T10:22:09.179Z,27.00
2018-04-12T10:24:37.415Z,26.60
2018-04-12T10:27:06.787Z,26.20
2018-04-12T10:29:35.836Z,26.30
2018-04-12T10:34:33.539Z,26.80
2018-04-12T10:37:02.067Z,27.00
2018-04-12T10:41:59.771Z,27.50
2018-04-12T10:44:28.196Z,27.90
2018-04-12T10:46:56.366Z,28.30
2018-04-12T10:49:24.598Z,28.50
2018-04-12T10:51:54.488Z,28.20
2018-04-12T10:54:24.194Z,27.80
2018-04-12T10:56:52.426Z,26.80
2018-04-12T11:04:21.394Z,24.70
2018-04-12T11:09:19.201Z,23.70
2018-04-12T11:11:48.943Z,23.30
2018-04-12T11:14:19.006Z,23.00
2018-04-12T11:16:47.235Z,22.70
2018-04-12T11:19:15.475Z,22.40
2018-04-12T11:21:44.118Z,22.20
2018-04-12T11:24:12.359Z,22.00
2018-04-12T11:26:41.355Z,21.90
2018-04-12T11:29:09.835Z,21.70
2018-04-12T11:31:39.601Z,21.60
2018-04-12T11:34:08.600Z,21.50
2018-04-12T11:36:36.935Z,21.40
2018-04-12T11:39:05.934Z,21.20
2018-04-12T11:41:34.929Z,21.30
2018-04-12T11:44:04.564Z,21.40
2018-04-12T11:46:34.314Z,21.70
2018-04-12T11:49:03.339Z,22.00
2018-04-12T11:51:31.930Z,22.50
2018-04-12T11:54:00.567Z,22.80
2018-04-12T11:56:28.839Z,23.20
2018-04-12T11:58:57.936Z,23.30
2018-04-12T12:01:27.671Z,23.60
2018-04-12T12:03:55.902Z,23.90
2018-04-12T12:08:54.431Z,24.60
2018-04-12T12:11:23.430Z,24.90
2018-04-12T12:13:52.079Z,25.20
2018-04-12T12:16:22.059Z,25.20
2018-04-12T12:18:52.475Z,25.20
2018-04-12T12:21:20.710Z,25.20
2018-04-12T12:23:49.007Z,25.10
2018-04-12T12:26:18.747Z,25.10
2018-04-12T12:28:46.985Z,25.20
2018-04-12T12:31:15.219Z,25.10
2018-04-12T12:33:43.531Z,25.00
2018-04-12T12:36:11.762Z,25.10
2018-04-12T12:38:41.506Z,25.10
2018-04-12T12:41:10.934Z,25.20
2018-04-12T12:43:39.167Z,25.30
2018-04-12T12:46:08.910Z,25.40
2018-04-12T12:48:38.351Z,25.60
2018-04-12T12:51:07.351Z,25.60
2018-04-12T12:53:36.351Z,25.60
2018-04-12T12:58:37.708Z,25.90
2018-04-12T13:01:05.939Z,25.80
2018-04-12T13:03:34.210Z,25.70
2018-04-12T13:06:02.442Z,25.50
2018-04-12T13:08:30.678Z,25.30
2018-04-12T13:10:58.955Z,25.10
2018-04-12T13:13:27.213Z,25.10
2018-04-12T13:15:55.431Z,25.10
2018-04-12T13:18:24.842Z,25.10
2018-04-12T13:20:54.583Z,25.00
2018-04-12T13:23:22.821Z,24.90
2018-04-12T13:25:51.108Z,24.80
2018-04-12T13:28:20.855Z,24.70
2018-04-12T13:30:49.090Z,24.60
2018-04-12T13:33:17.417Z,24.60
2018-04-12T13:35:45.611Z,24.40
2018-04-12T13:40:46.699Z,24.20
2018-04-12T13:43:16.450Z,24.20
2018-04-12T13:45:44.683Z,24.10
2018-04-12T13:48:13.890Z,24.00
2018-04-12T13:50:42.893Z,24.00
2018-04-12T13:53:11.122Z,24.00
2018-04-12T13:55:40.259Z,24.00
2018-04-12T13:58:08.494Z,24.00
2018-04-12T14:00:36.727Z,24.00
2018-04-12T14:03:12.610Z,24.00
2018-04-12T14:05:41.619Z,24.00
2018-04-12T14:08:10.615Z,23.80
2018-04-12T14:10:39.165Z,23.70
2018-04-12T14:13:08.947Z,23.70
2018-04-12T14:18:07.655Z,23.50
2018-04-12T14:20:37.635Z,23.50
2018-04-12T14:23:05.867Z,23.40
2018-04-12T14:25:34.919Z,23.40
2018-04-12T14:28:03.546Z,23.30
2018-04-12T14:30:32.551Z,23.30
2018-04-12T14:33:01.158Z,23.30
2018-04-12T14:35:29.790Z,23.30
2018-04-12T14:37:58.040Z,23.30
2018-04-12T14:40:26.571Z,23.30
2018-04-12T14:42:56.315Z,23.30
2018-04-12T14:45:24.947Z,23.40
2018-04-12T14:47:54.631Z,23.50
2018-04-12T14:50:22.862Z,23.50
2018-04-12T14:52:51.099Z,23.60
2018-04-12T14:55:19.666Z,23.70
2018-04-12T14:57:47.906Z,23.80
2018-04-12T15:00:16.943Z,23.80
2018-04-12T15:02:45.215Z,23.80
2018-04-12T15:05:13.450Z,23.70
2018-04-12T15:07:42.083Z,23.70
2018-04-12T15:10:11.735Z,23.60
2018-04-12T15:12:41.475Z,23.50
2018-04-12T15:15:10.481Z,23.40
2018-04-12T15:17:40.334Z,23.30
2018-04-12T15:20:08.966Z,23.20
2018-04-12T15:22:38.207Z,23.10
2018-04-12T15:25:06.879Z,23.10
2018-04-12T15:27:36.248Z,23.00
2018-04-12T15:30:04.483Z,22.90
2018-04-12T15:35:02.428Z,22.80
2018-04-12T15:37:30.663Z,22.80
2018-04-12T15:39:59.462Z,22.80
2018-04-12T15:44:57.158Z,22.80
2018-04-12T15:47:25.479Z,22.80
2018-04-12T15:49:55.227Z,22.80
2018-04-12T15:52:24.222Z,22.80
2018-04-12T15:54:52.496Z,22.70
2018-04-12T15:57:20.722Z,22.70
2018-04-12T15:59:50.461Z,22.70
2018-04-12T16:02:19.099Z,22.70
2018-04-12T16:04:48.107Z,22.60
2018-04-12T16:09:48.148Z,22.60
2018-04-12T16:12:16.385Z,22.60
2018-04-12T16:14:44.617Z,22.50
2018-04-12T16:17:13.518Z,22.50
2018-04-12T16:19:42.524Z,22.50
2018-04-12T16:22:11.532Z,22.40
2018-04-12T16:24:40.520Z,22.30
2018-04-12T16:27:09.160Z,22.20
2018-04-12T16:29:37.387Z,22.10
2018-04-12T16:32:05.990Z,22.00
2018-04-12T16:34:34.231Z,21.90
2018-04-12T16:37:02.459Z,21.80
2018-04-12T16:39:31.980Z,21.80
2018-04-12T16:42:01.724Z,21.70
2018-04-12T16:44:30.349Z,21.60
2018-04-12T16:46:58.619Z,21.50
2018-04-12T16:51:56.319Z,21.40
2018-04-12T16:54:25.491Z,21.40
2018-04-12T16:56:54.123Z,21.30
2018-04-12T16:59:22.367Z,21.20
2018-04-12T17:01:51.122Z,21.20
2018-04-12T17:04:19.350Z,21.20
2018-04-12T17:06:47.587Z,21.20
2018-04-12T17:09:16.075Z,21.10
2018-04-12T17:11:45.079Z,21.10
2018-04-12T17:14:14.074Z,21.00
2018-04-12T17:16:43.255Z,21.00
2018-04-12T17:19:11.523Z,20.90
2018-04-12T17:21:39.722Z,20.90
2018-04-12T17:24:08.846Z,20.80
2018-04-12T17:26:37.711Z,20.80
2018-04-12T17:29:05.959Z,20.70
2018-04-12T17:31:35.873Z,20.70
2018-04-12T17:34:04.106Z,20.60
2018-04-12T17:36:32.739Z,20.50
2018-04-12T17:41:30.477Z,20.40
2018-04-12T17:43:58.710Z,20.30
2018-04-12T17:46:30.162Z,20.30
2018-04-12T17:48:58.800Z,20.20
2018-04-12T17:51:27.031Z,20.20
2018-04-12T17:53:55.562Z,20.20
2018-04-12T17:56:26.857Z,20.10
2018-04-12T17:58:55.667Z,20.10
2018-04-12T18:01:23.901Z,20.00
2018-04-12T18:03:53.646Z,19.90
2018-04-12T18:06:22.507Z,19.90
2018-04-12T18:08:51.510Z,19.90
2018-04-12T18:11:19.741Z,19.80
2018-04-12T18:16:18.672Z,19.70
2018-04-12T18:18:46.906Z,19.70
2018-04-12T18:21:16.423Z,19.60
2018-04-12T18:23:46.166Z,19.40
2018-04-12T18:26:14.399Z,19.40
2018-04-12T18:28:43.487Z,19.30
2018-04-12T18:31:12.483Z,19.30
2018-04-12T18:36:11.155Z,19.00
2018-04-12T18:38:40.898Z,18.90
2018-04-12T18:41:09.895Z,18.90
2018-04-12T23:20:25.612Z,15.50
2018-04-12T23:32:52.519Z,15.10
2018-04-12T23:35:20.762Z,15.00
2018-04-12T23:37:49.198Z,14.90
2018-04-12T23:40:19.158Z,14.90
2018-04-12T23:42:47.395Z,14.80
2018-04-12T23:45:15.622Z,14.70
2018-04-12T23:47:45.403Z,14.70
2018-04-12T23:50:13.627Z,14.70
2018-04-12T23:55:11.358Z,14.60
2018-04-12T23:57:39.595Z,14.50
